Ash Grove, Missouri
Current Conditions -  °F | °C
As of 10:52 PM on Saturday 20 Dec 2014 (Local Time) from KSGF Reporting Station
Overcast Overcast  
Wind Chill: 36°   Ceiling: 2000
Heat Index: 41°   Visibility: 10mi
Dew Point: 38°   Wind: 8mph
Humidity: 89%   Direction: 160°SSE
Pressure: 30.18"   Gusts: NA
Location:  37.32°N, 93.59°W
Report Text: KSGF 210452Z 16007KT 10SM OVC020 05/03 A3018 RMK AO2 SLP226 T00500033
Loading
Personal Weather Stations






























Interactive Weather Map New forecast layout! Learn more

10-Day Weather Forecast

Advertisements
Track Severe Weather on mobile